createdAt,value
2023-04-16T00:01:27.131Z,24.37
2023-04-16T00:04:30.433Z,24.14
2023-04-16T00:07:34.661Z,24.16
2023-04-16T00:10:37.771Z,23.92
2023-04-16T00:13:40.943Z,23.56
2023-04-16T00:16:44.235Z,23.59
2023-04-16T00:19:47.471Z,23.80
2023-04-16T00:22:51.777Z,23.60
2023-04-16T00:25:55.040Z,23.94
2023-04-16T00:28:58.398Z,23.47
2023-04-16T00:32:01.931Z,23.31
2023-04-16T00:35:05.473Z,23.34
2023-04-16T00:38:08.675Z,23.25
2023-04-16T00:41:11.904Z,23.39
2023-04-16T00:44:17.454Z,23.63
2023-04-16T00:47:21.524Z,23.31
2023-04-16T00:50:24.935Z,23.45
2023-04-16T00:53:28.251Z,23.25
2023-04-16T00:56:31.581Z,23.20
2023-04-16T00:59:34.733Z,22.93
2023-04-16T01:02:38.063Z,23.10
2023-04-16T01:05:42.172Z,23.08
2023-04-16T01:08:48.538Z,23.16
2023-04-16T01:11:51.641Z,22.94
2023-04-16T01:14:54.944Z,22.91
2023-04-16T01:17:58.874Z,22.86
2023-04-16T01:21:02.538Z,22.85
2023-04-16T01:24:06.410Z,22.79
2023-04-16T01:27:09.651Z,22.77
2023-04-16T01:30:12.931Z,22.73
2023-04-16T01:33:16.610Z,22.68
2023-04-16T01:36:22.167Z,22.75
2023-04-16T01:39:25.342Z,22.64
2023-04-16T01:42:28.527Z,22.75
2023-04-16T01:45:37.731Z,22.79
2023-04-16T01:48:40.957Z,22.75
2023-04-16T01:51:44.284Z,22.78
2023-04-16T01:54:47.382Z,22.84
2023-04-16T01:57:51.368Z,22.70
2023-04-16T02:00:57.171Z,22.68
2023-04-16T02:04:00.773Z,22.67
2023-04-16T02:07:04.004Z,22.84
2023-04-16T02:10:08.311Z,22.72
2023-04-16T02:13:11.599Z,22.69
2023-04-16T02:16:14.894Z,22.69
2023-04-16T02:19:18.648Z,22.67
2023-04-16T02:22:24.156Z,22.82
2023-04-16T02:25:29.739Z,22.62
2023-04-16T02:28:33.052Z,22.63
2023-04-16T02:31:36.362Z,22.60
2023-04-16T02:34:39.760Z,22.55
2023-04-16T02:37:42.914Z,22.91
2023-04-16T02:40:48.486Z,22.85
2023-04-16T02:43:51.881Z,22.62
2023-04-16T02:46:55.037Z,22.59
2023-04-16T02:49:58.359Z,22.06
2023-04-16T02:53:01.640Z,21.00
2023-04-16T02:56:07.893Z,19.63
2023-04-16T02:59:11.345Z,18.68
2023-04-16T03:02:14.614Z,17.94
2023-04-16T03:05:18.023Z,17.68
2023-04-16T03:08:21.203Z,17.41
2023-04-16T03:11:25.165Z,17.27
2023-04-16T03:14:28.764Z,17.23
2023-04-16T03:17:31.975Z,17.59
2023-04-16T03:20:35.170Z,17.70
2023-04-16T03:23:38.553Z,17.80
2023-04-16T03:26:41.684Z,17.84
2023-04-16T03:29:44.837Z,17.41
2023-04-16T03:32:48.051Z,17.54
2023-04-16T03:35:58.470Z,17.79
2023-04-16T03:39:01.639Z,17.81
2023-04-16T03:42:04.876Z,18.10
2023-04-16T03:45:09.586Z,18.07
2023-04-16T03:48:12.913Z,17.91
2023-04-16T03:51:16.157Z,18.14
2023-04-16T03:54:20.762Z,18.00
2023-04-16T03:57:25.713Z,18.11
2023-04-16T04:00:29.022Z,18.25
2023-04-16T04:03:36.127Z,18.55
2023-04-16T04:06:39.549Z,18.25
2023-04-16T04:09:45.196Z,18.21
2023-04-16T04:12:48.465Z,18.17
2023-04-16T04:15:52.115Z,18.38
2023-04-16T04:18:56.530Z,18.62
2023-04-16T04:21:59.734Z,18.43
2023-04-16T04:25:02.982Z,18.33
2023-04-16T04:28:06.189Z,18.25
2023-04-16T04:31:10.134Z,18.29
2023-04-16T04:34:13.373Z,18.60
2023-04-16T04:37:16.629Z,18.71
2023-04-16T04:40:19.934Z,18.78
2023-04-16T04:43:23.256Z,18.76
2023-04-16T04:46:26.562Z,18.79
2023-04-16T04:49:29.817Z,18.58
2023-04-16T04:52:33.163Z,18.64
2023-04-16T04:55:42.880Z,18.49
2023-04-16T04:58:46.120Z,18.52
2023-04-16T05:01:50.218Z,18.61
2023-04-16T05:04:53.455Z,18.40
2023-04-16T05:07:56.926Z,18.35
2023-04-16T05:11:00.685Z,18.38
2023-04-16T05:14:03.861Z,18.13
2023-04-16T05:17:07.145Z,18.11
2023-04-16T05:20:10.748Z,18.22
2023-04-16T05:23:13.944Z,18.02
2023-04-16T05:26:17.161Z,18.28
2023-04-16T05:29:20.487Z,18.40
2023-04-16T05:32:27.148Z,18.34
2023-04-16T05:35:30.398Z,18.31
2023-04-16T05:38:33.640Z,18.47
2023-04-16T05:41:36.811Z,18.41
2023-04-16T05:44:41.593Z,18.40
2023-04-16T05:47:45.233Z,18.34
2023-04-16T05:50:33.527Z,18.47
2023-04-16T05:53:36.848Z,18.54
2023-04-16T05:56:41.240Z,18.44
2023-04-16T05:59:44.507Z,18.44
2023-04-16T06:02:47.866Z,18.47
2023-04-16T06:05:51.263Z,18.65
2023-04-16T06:08:54.612Z,18.68
2023-04-16T06:11:57.888Z,18.49
2023-04-16T06:15:01.602Z,18.74
2023-04-16T06:18:04.876Z,18.59
2023-04-16T06:21:08.110Z,18.42
2023-04-16T06:24:11.673Z,18.65
2023-04-16T06:27:14.980Z,18.46
2023-04-16T06:30:18.384Z,18.38
2023-04-16T06:33:21.750Z,18.38
2023-04-16T06:36:27.353Z,18.44
2023-04-16T06:39:30.727Z,18.36
2023-04-16T06:42:33.902Z,18.43
2023-04-16T06:45:37.334Z,18.60
2023-04-16T06:48:40.480Z,18.45
2023-04-16T06:51:43.770Z,18.30
2023-04-16T06:54:46.998Z,18.19
2023-04-16T06:57:50.230Z,18.23
2023-04-16T07:00:53.441Z,18.15
2023-04-16T07:03:56.921Z,17.99
2023-04-16T07:07:00.198Z,17.81
2023-04-16T07:10:03.362Z,17.84
2023-04-16T07:13:06.508Z,17.68
2023-04-16T07:16:09.819Z,17.79
2023-04-16T07:19:13.042Z,17.85
2023-04-16T07:22:16.264Z,17.77
2023-04-16T07:25:19.530Z,17.79
2023-04-16T07:28:22.676Z,17.49
2023-04-16T07:31:27.007Z,17.80
2023-04-16T07:34:31.222Z,17.41
2023-04-16T07:37:34.618Z,17.40
2023-04-16T07:40:37.971Z,17.60
2023-04-16T07:43:41.191Z,17.53
2023-04-16T07:46:47.466Z,17.47
2023-04-16T07:49:51.024Z,17.29
2023-04-16T07:52:54.449Z,17.46
2023-04-16T07:55:57.624Z,17.14
2023-04-16T07:59:18.543Z,17.31
2023-04-16T08:02:24.199Z,17.17
2023-04-16T08:05:27.541Z,17.01
2023-04-16T08:08:30.717Z,16.80
2023-04-16T08:11:33.931Z,17.01
2023-04-16T08:14:37.163Z,16.89
2023-04-16T08:17:40.433Z,16.95
2023-04-16T08:20:43.833Z,16.87
2023-04-16T08:23:46.984Z,16.83
2023-04-16T08:26:50.159Z,16.57
2023-04-16T08:29:53.383Z,16.32
2023-04-16T08:32:56.641Z,16.33
2023-04-16T08:35:59.896Z,16.37
2023-04-16T08:39:03.092Z,16.18
2023-04-16T08:42:06.998Z,16.07
2023-04-16T08:45:18.355Z,15.92
2023-04-16T08:48:21.603Z,16.12
2023-04-16T08:51:24.940Z,16.32
2023-04-16T08:54:42.402Z,16.11
2023-04-16T08:57:51.890Z,15.98
2023-04-16T09:00:55.614Z,15.87
2023-04-16T09:03:59.297Z,15.73
2023-04-16T09:07:04.256Z,15.82
2023-04-16T09:10:08.486Z,15.79
2023-04-16T09:13:12.552Z,15.63
2023-04-16T09:16:16.682Z,15.86
2023-04-16T09:19:19.969Z,15.85
2023-04-16T09:22:23.109Z,15.51
2023-04-16T09:25:26.489Z,15.45
2023-04-16T09:28:48.081Z,15.45
2023-04-16T09:32:08.726Z,15.35
2023-04-16T09:35:11.990Z,15.34
2023-04-16T09:38:15.568Z,15.59
2023-04-16T09:41:19.749Z,15.48
2023-04-16T09:44:36.237Z,15.28
2023-04-16T09:47:44.640Z,15.36
2023-04-16T09:50:54.179Z,15.36
2023-04-16T09:53:58.429Z,15.11
2023-04-16T09:57:02.047Z,15.13
2023-04-16T10:00:10.366Z,15.12
2023-04-16T10:03:13.799Z,15.02
2023-04-16T10:06:19.709Z,14.73
2023-04-16T10:09:23.980Z,14.68
2023-04-16T10:12:27.206Z,14.70
2023-04-16T10:15:32.830Z,14.38
2023-04-16T10:18:42.289Z,14.68
2023-04-16T10:21:46.407Z,14.60
2023-04-16T10:24:50.638Z,14.72
2023-04-16T10:27:54.121Z,14.54
2023-04-16T10:30:58.580Z,14.17
2023-04-16T10:34:02.628Z,14.32
2023-04-16T10:37:06.168Z,14.18
2023-04-16T10:40:26.798Z,14.24
2023-04-16T10:43:31.280Z,14.28
2023-04-16T10:46:36.606Z,14.03
2023-04-16T10:49:40.878Z,14.07
2023-04-16T10:52:44.061Z,14.04
2023-04-16T10:55:59.343Z,13.92
2023-04-16T10:59:05.514Z,13.97
2023-04-16T11:02:16.182Z,13.89
2023-04-16T11:05:23.121Z,14.16
2023-04-16T11:08:26.418Z,13.76
2023-04-16T11:11:39.057Z,13.81
2023-04-16T11:14:42.821Z,13.75
2023-04-16T11:17:48.521Z,13.92
2023-04-16T11:20:52.302Z,13.42
2023-04-16T11:23:55.430Z,13.94
2023-04-16T11:26:58.594Z,13.28
2023-04-16T11:30:07.004Z,13.52
2023-04-16T11:33:11.080Z,13.46
2023-04-16T11:36:14.300Z,13.37
2023-04-16T11:39:17.667Z,13.45
2023-04-16T11:42:22.321Z,13.60
2023-04-16T11:45:25.647Z,13.12
2023-04-16T11:48:47.463Z,13.25
2023-04-16T11:51:50.622Z,13.13
2023-04-16T11:54:54.378Z,13.04
2023-04-16T11:57:57.527Z,13.15
2023-04-16T12:01:00.809Z,13.21
2023-04-16T12:04:04.652Z,13.05
2023-04-16T12:07:09.217Z,13.19
2023-04-16T12:10:12.745Z,13.06
2023-04-16T12:13:17.460Z,13.14
2023-04-16T12:16:20.826Z,12.99
2023-04-16T12:19:24.007Z,12.96
2023-04-16T12:22:31.354Z,13.06
2023-04-16T12:25:34.624Z,13.02
2023-04-16T12:28:38.388Z,12.83
2023-04-16T12:31:41.628Z,12.92
2023-04-16T12:34:53.741Z,12.98
2023-04-16T12:38:00.104Z,13.07
2023-04-16T12:41:04.172Z,13.34
2023-04-16T12:44:16.782Z,12.99
2023-04-16T12:47:19.963Z,12.71
2023-04-16T12:50:23.480Z,12.85
2023-04-16T12:53:26.715Z,13.33
2023-04-16T12:56:30.008Z,13.75
2023-04-16T12:59:33.182Z,13.41
2023-04-16T13:02:36.694Z,13.50
2023-04-16T13:05:40.507Z,13.56
2023-04-16T13:08:47.199Z,13.40
2023-04-16T13:11:50.319Z,13.70
2023-04-16T13:14:53.841Z,13.60
2023-04-16T13:17:59.400Z,13.82
2023-04-16T13:21:03.028Z,14.30
2023-04-16T13:24:06.464Z,14.18
2023-04-16T13:27:10.088Z,14.06
2023-04-16T13:30:15.193Z,14.10
2023-04-16T13:33:18.505Z,14.14
2023-04-16T13:36:21.766Z,13.70
2023-04-16T13:39:24.943Z,13.85
2023-04-16T13:42:28.176Z,14.42
2023-04-16T13:45:33.689Z,14.32
2023-04-16T13:48:36.904Z,14.72
2023-04-16T13:51:40.089Z,14.64
2023-04-16T13:54:43.300Z,14.47
2023-04-16T13:57:47.633Z,14.71
2023-04-16T14:00:51.709Z,15.03
2023-04-16T14:03:57.612Z,14.76
2023-04-16T14:07:00.817Z,14.59
2023-04-16T14:10:04.241Z,14.65
2023-04-16T14:13:07.420Z,14.83
2023-04-16T14:16:10.609Z,15.42
2023-04-16T14:19:13.840Z,15.41
2023-04-16T14:22:19.544Z,15.32
2023-04-16T14:25:22.730Z,15.11
2023-04-16T14:28:25.952Z,15.38
2023-04-16T14:31:29.159Z,15.26
2023-04-16T14:34:32.345Z,15.77
2023-04-16T14:37:35.794Z,15.69
2023-04-16T14:40:41.680Z,15.61
2023-04-16T14:43:44.881Z,15.84
2023-04-16T14:46:48.070Z,15.63
2023-04-16T14:49:51.252Z,15.99
2023-04-16T14:52:54.557Z,16.83
2023-04-16T14:55:58.374Z,16.46
2023-04-16T14:59:01.674Z,16.11
2023-04-16T15:02:05.716Z,16.86
2023-04-16T15:05:09.296Z,16.27
2023-04-16T15:08:12.592Z,16.64
2023-04-16T15:11:15.813Z,16.50
2023-04-16T15:14:19.455Z,16.70
2023-04-16T15:17:22.704Z,16.92
2023-04-16T15:20:26.431Z,17.54
2023-04-16T15:23:32.043Z,17.82
2023-04-16T15:26:35.404Z,17.89
2023-04-16T15:29:40.907Z,17.48
2023-04-16T15:32:48.480Z,17.72
2023-04-16T15:35:52.109Z,17.27
2023-04-16T15:38:55.368Z,17.34
2023-04-16T15:42:01.772Z,18.28
2023-04-16T15:45:06.504Z,18.14
2023-04-16T15:48:09.786Z,18.13
2023-04-16T15:51:13.066Z,17.76
2023-04-16T15:54:16.202Z,18.07
2023-04-16T15:57:19.481Z,18.14
2023-04-16T16:00:25.129Z,18.46
2023-04-16T16:03:28.467Z,17.97
2023-04-16T16:06:32.088Z,18.52
2023-04-16T16:09:35.334Z,17.99
2023-04-16T16:12:38.569Z,18.49
2023-04-16T16:15:41.841Z,18.70
2023-04-16T16:18:45.109Z,18.75
2023-04-16T16:21:48.285Z,19.63
2023-04-16T16:24:52.204Z,19.52
2023-04-16T16:27:55.307Z,19.53
2023-04-16T16:30:58.537Z,19.59
2023-04-16T16:34:01.760Z,20.01
2023-04-16T16:37:05.670Z,20.36
2023-04-16T16:40:09.696Z,20.32
2023-04-16T16:43:13.343Z,20.84
2023-04-16T16:46:16.704Z,20.49
2023-04-16T16:49:20.167Z,20.60
2023-04-16T16:52:24.601Z,19.73
2023-04-16T16:55:27.946Z,19.59
2023-04-16T16:58:31.097Z,20.42
2023-04-16T17:01:37.038Z,20.20
2023-04-16T17:04:40.234Z,20.52
2023-04-16T17:07:43.796Z,20.68
2023-04-16T17:10:47.065Z,21.47
2023-04-16T17:13:50.251Z,21.29
2023-04-16T17:16:53.458Z,21.35
2023-04-16T17:19:56.769Z,21.74
2023-04-16T17:23:00.651Z,21.90
2023-04-16T17:26:03.847Z,22.00
2023-04-16T17:29:07.082Z,22.19
2023-04-16T17:32:10.555Z,20.63
2023-04-16T17:35:13.825Z,20.83
2023-04-16T17:38:17.293Z,22.10
2023-04-16T17:41:20.510Z,22.06
2023-04-16T17:44:23.795Z,21.72
2023-04-16T17:47:27.087Z,22.56
2023-04-16T17:50:30.322Z,21.93
2023-04-16T17:53:33.482Z,21.73
2023-04-16T17:56:36.766Z,21.99
2023-04-16T17:59:39.978Z,20.93
2023-04-16T18:02:43.437Z,21.72
2023-04-16T18:05:48.781Z,21.73
2023-04-16T18:08:52.448Z,22.53
2023-04-16T18:11:55.562Z,21.42
2023-04-16T18:14:58.788Z,21.22
2023-04-16T18:18:01.933Z,22.07
2023-04-16T18:21:06.534Z,22.46
2023-04-16T18:24:10.399Z,21.90
2023-04-16T18:27:13.891Z,21.97
2023-04-16T18:30:22.949Z,22.98
2023-04-16T18:33:49.877Z,23.54
2023-04-16T18:36:52.867Z,23.51
2023-04-16T18:39:57.991Z,23.12
2023-04-16T18:43:04.298Z,23.43
2023-04-16T18:46:07.665Z,21.46
2023-04-16T18:49:13.570Z,21.45
2023-04-16T18:52:16.894Z,21.95
2023-04-16T18:55:20.134Z,21.30
2023-04-16T18:58:25.637Z,22.02
2023-04-16T19:01:33.604Z,22.87
2023-04-16T19:04:39.213Z,23.16
2023-04-16T19:07:42.325Z,22.94
2023-04-16T19:10:48.588Z,22.81
2023-04-16T19:13:51.814Z,22.96
2023-04-16T19:16:55.279Z,22.10
2023-04-16T19:19:58.534Z,22.40
2023-04-16T19:23:01.915Z,21.42
2023-04-16T19:26:05.298Z,21.71
2023-04-16T19:29:08.544Z,21.48
2023-04-16T19:32:14.058Z,22.18
2023-04-16T19:35:17.627Z,22.85
2023-04-16T19:38:20.787Z,22.75
2023-04-16T19:41:24.032Z,22.95
2023-04-16T19:44:27.256Z,22.66
2023-04-16T19:47:30.537Z,22.74
2023-04-16T19:50:33.692Z,22.35
2023-04-16T19:53:36.934Z,22.84
2023-04-16T19:56:40.152Z,22.93
2023-04-16T19:59:43.564Z,22.97
2023-04-16T20:02:48.175Z,22.21
2023-04-16T20:05:51.793Z,21.86
2023-04-16T20:08:54.962Z,22.50
2023-04-16T20:11:58.286Z,22.26
2023-04-16T20:15:02.535Z,22.19
2023-04-16T20:18:07.617Z,22.42
2023-04-16T20:21:11.521Z,22.16
2023-04-16T20:24:14.780Z,22.38
2023-04-16T20:27:18.032Z,22.59
2023-04-16T20:30:21.409Z,22.81
2023-04-16T20:33:24.630Z,22.67
2023-04-16T20:36:27.917Z,22.93
2023-04-16T20:39:31.098Z,22.53
2023-04-16T20:42:34.424Z,21.83
2023-04-16T20:45:39.569Z,22.18
2023-04-16T20:48:42.846Z,22.08
2023-04-16T20:51:46.543Z,22.44
2023-04-16T20:54:49.840Z,22.36
2023-04-16T20:57:53.038Z,21.90
2023-04-16T21:01:00.351Z,22.15
2023-04-16T21:04:03.770Z,22.14
2023-04-16T21:07:07.137Z,22.56
2023-04-16T21:10:10.928Z,22.37
2023-04-16T21:13:14.659Z,21.65
2023-04-16T21:16:17.905Z,22.11
2023-04-16T21:19:21.414Z,21.92
2023-04-16T21:22:24.680Z,22.04
2023-04-16T21:25:30.261Z,22.51
2023-04-16T21:28:33.514Z,22.74
2023-04-16T21:31:36.818Z,22.32
2023-04-16T21:34:40.158Z,21.62
2023-04-16T21:37:43.860Z,21.93
2023-04-16T21:40:49.981Z,22.11
2023-04-16T21:43:53.169Z,22.63
2023-04-16T21:46:57.594Z,22.51
2023-04-16T21:50:01.995Z,22.39
2023-04-16T21:53:05.641Z,22.32
2023-04-16T21:56:08.987Z,22.42
2023-04-16T21:59:12.446Z,22.62
2023-04-16T22:02:16.059Z,22.07
2023-04-16T22:05:19.410Z,21.64
2023-04-16T22:08:24.978Z,21.52
2023-04-16T22:11:30.729Z,22.05
2023-04-16T22:14:40.501Z,22.07
2023-04-16T22:17:47.563Z,22.19
2023-04-16T22:20:51.877Z,22.23
2023-04-16T22:23:55.033Z,22.09
2023-04-16T22:26:58.487Z,21.49
2023-04-16T22:30:02.237Z,21.10
2023-04-16T22:33:05.662Z,20.98
2023-04-16T22:36:09.170Z,21.39
2023-04-16T22:39:13.053Z,20.84
2023-04-16T22:42:16.633Z,20.78
2023-04-16T22:45:19.889Z,21.01
2023-04-16T22:48:23.149Z,21.20
2023-04-16T22:51:26.777Z,21.06
2023-04-16T22:54:30.971Z,20.92
2023-04-16T22:57:34.536Z,20.71
2023-04-16T23:00:37.732Z,20.60
2023-04-16T23:03:41.154Z,20.61
2023-04-16T23:06:44.664Z,20.75
2023-04-16T23:09:47.876Z,20.61
2023-04-16T23:12:53.142Z,20.66
2023-04-16T23:15:56.445Z,20.68
2023-04-16T23:19:00.282Z,20.29
2023-04-16T23:22:05.016Z,20.57
2023-04-16T23:25:10.684Z,20.41
2023-04-16T23:28:14.209Z,20.23
2023-04-16T23:31:17.651Z,19.80
2023-04-16T23:34:21.091Z,19.75
2023-04-16T23:37:24.721Z,20.04
2023-04-16T23:40:28.013Z,19.94
2023-04-16T23:43:31.227Z,19.63
2023-04-16T23:46:34.627Z,19.67
2023-04-16T23:49:37.905Z,19.69
2023-04-16T23:52:41.090Z,19.54
2023-04-16T23:55:44.298Z,19.56
2023-04-16T23:58:47.533Z,19.66
